Terminal Aerodrome Forecast
Issued by NWS Detroit/Pontiac, MI

Home | Current Version | Previous Version | Text Only | Print | Product List | Glossary On
Versions: 1 2 3 4 5 6 7 8 9 10 11 12 13 14 15 16 17 18 19 20 21
999
FTUS43 KDTX 191734
TAFFNT
TAF
KFNT 191734Z 1918/2018 07007KT P6SM SCT012 OVC025
      TEMPO 1918/1920 6SM -SHRA BKN012
     FM192100 10006KT P6SM BKN012 OVC080
      TEMPO 2000/2003 6SM -SHRA BKN008 OVC035
     FM200300 15005KT 4SM BR BKN012
     FM201400 17006KT P6SM BKN028 OVC100=

USA.gov is the U.S. government's official web portal to all federal, state and local government web resources and services.